Huvudsida
METAR-TAF:

METAR-TAF

Flygplatser :

Rørviks flygplats. Ryum

Rørvik, Norge

latitud: 64-50N, longitud: 011-09E, höjd: 4 m

Aktuellt väderrapport

Denna rapport gjordes för 10 timmar och 17 minuter sedan, klockan 19:50 UTC
Vind 8 kt från ost/nordost
Temperatur 10°C
Fuktighet 100%
Tryck 977 hPa
Sikt: 9000 m
Få moln på en höjd av 800 ft
Spridda moln på en höjd av 2500 ft
Brutna moln på en höjd av 4200 ft
lätt regn

METAR: ENRM 211950Z 06008KT 9000 -RA FEW008 SCT025 BKN042 10/10 Q0977

Tid: 08:07 (06:07 UTC)

Väderprognos

Denna rapport gjordes för 16 timmar och 7 minuter sedan, klockan 14:00 UTC
Prognos gäller från 21 kl. 15 UTC till 21 kl. 20 UTC
Vind 12 kt från ost
Sikt 10 km eller mer
Få moln på en höjd av 2000 ft
Brutna moln på en höjd av 5000 ft
Sannolikhet 40%
från 21 kl. 16 UTC till 21 kl. 20 UTC
regn

TAF: ENRM 211400Z 2115/2120 10012KT 9999 FEW020 BKN050 PROB40 2116/2120 RA

Aktuella väderrapporter och prognoser från 4000 flygplatser (METAR- och TAF-rapporter).

De tillgängliga stationerna syns som gula och röda prickar på kartan.

För musen över prickarna för att se namnen på stationerna.

Klicka sedan för att få väderrapporter och prognoser.

För att ändra kartan: Klicka på de gröna knapparna med ett svart kors på för att zooma in; den gröna knappen med ett streck på för att zooma ut; eller på de gröna pilarna för angränsande kartor.


METAR-TAF: